Date,TemperatureHighF,TemperatureAvgF,TemperatureLowF,DewpointHighF,DewpointAvgF,DewpointLowF,HumidityHigh,HumidityAvg,HumidityLow,PressureMaxIn,PressureMinIn,WindSpeedMaxMPH,WindSpeedAvgMPH,GustSpeedMaxMPH,PrecipitationSumIn
2013-2-1,8.8,0.5,-6.3,4.4,-7.5,-13.5,82,68,58,30.30,30.07,8,3,18,0.00
2013-2-2,17.5,9.8,1.7,14.3,4.3,-4.1,88,78,68,30.06,29.93,4,1,10,0.00
2013-2-3,18.8,14.5,5.6,14.0,8.3,1.0,86,76,64,29.97,29.88,8,2,20,0.00
2013-2-4,19.9,14.1,-0.8,14.8,9.0,-6.3,88,80,69,29.93,29.80,4,1,14,0.00
2013-2-5,29.3,18.4,-2.4,24.3,13.9,-7.4,90,82,73,30.00,29.72,5,1,15,0.00
2013-2-6,35.3,22.8,1.1,30.7,16.8,-3.6,85,78,66,30.14,29.95,6,2,14,0.05
2013-2-7,34.9,32.1,23.2,33.0,30.1,21.7,95,92,83,29.97,29.79,4,1,11,0.30
2013-2-8,24.4,18.9,1.8,21.4,14.8,-2.7,94,84,75,30.33,29.96,3,0,11,0.00
2013-2-9,29.3,23.2,5.8,25.1,19.4,2.0,90,85,79,30.32,29.97,9,3,18,0.00
2013-2-10,43.5,35.1,19.7,43.0,33.3,17.2,98,93,76,29.97,29.31,12,6,26,0.33
2013-2-11,38.6,30.3,25.1,32.0,23.6,18.9,84,76,70,29.93,29.35,15,9,34,0.01
2013-2-12,30.1,23.9,18.8,21.0,17.5,15.1,88,76,67,30.01,29.80,6,3,18,0.00
2013-2-13,39.1,27.8,12.9,31.1,22.8,10.0,92,82,67,29.80,29.58,6,1,17,0.01
2013-2-14,37.0,34.6,29.1,31.8,27.5,22.4,89,76,59,29.89,29.48,8,4,21,0.00
2013-2-15,29.1,21.8,14.1,24.3,11.0,3.8,82,63,48,30.12,29.89,5,3,15,0.00
2013-2-16,17.7,11.7,4.5,6.2,2.2,-1.9,78,65,52,30.13,30.07,5,2,13,0.00
2013-2-17,28.2,16.7,0.9,19.7,7.7,-3.8,84,68,52,30.15,29.82,8,3,20,0.00
2013-2-18,49.2,35.0,21.1,39.9,28.6,18.1,94,78,65,29.82,29.35,9,5,20,0.41
2013-2-19,20.3,11.1,6.5,17.3,5.5,-0.6,88,78,71,30.15,29.49,8,5,24,0.00
2013-2-20,20.3,11.1,4.3,10.4,3.5,-3.1,82,71,64,30.32,30.15,3,2,14,0.00
2013-2-21,27.0,19.1,7.6,22.8,14.1,3.5,89,81,75,30.33,29.88,4,1,21,0.00
2013-2-22,29.5,26.5,24.4,26.9,23.9,22.2,93,90,87,29.88,29.69,4,2,16,0.02
2013-2-23,27.0,23.2,18.4,22.8,17.1,12.7,87,77,68,29.88,29.78,9,4,17,0.01
2013-2-24,34.7,21.8,6.5,21.1,14.2,2.7,86,73,56,30.06,29.88,1,0,7,0.14
2013-2-25,40.6,26.8,10.9,27.3,19.6,7.5,89,75,57,30.08,29.88,2,0,7,0.01
2013-2-26,34.7,32.2,30.0,30.0,27.1,24.3,94,82,67,29.87,29.50,6,3,24,0.00
2013-2-27,32.1,30.0,27.8,30.6,28.6,26.6,98,94,92,29.65,29.49,6,4,15,0.10
2013-2-28,34.0,31.0,24.1,29.8,26.0,16.8,92,82,71,30.03,29.68,5,3,15,0.09